Terminal Aerodrome Forecast
Issued by NWS

Home | Current Version | Previous Version | Text Only | Print | Product List | Glossary On
Versions: 1 2 3 4 5 6 7 8 9 10 11 12 13 14 15 16 17 18 19 20
000
FTUS43 KGRR 262340
TAFJXN
TAF
KJXN 262340Z 2700/2724 21003KT P6SM -SHRA OVC100
      TEMPO 2701/2705 4SM -SHRA BR OVC040
     FM270500 VRB03KT 5SM BR OVC035
     FM271400 VRB03KT P6SM BKN035=

USA.gov is the U.S. government's official web portal to all federal, state and local government web resources and services.